Flight Track Log - Related Links

Times and Time Zones

All times are in EDT time to prevent confusion due to time zone crossing. See the FLG3432 flight status page for this flight to view local times or setup timezone preferences in your user account.

Time Position Orientation Groundspeed Altitude Reporting Facility
EDT Latitude Longitude Course Direction KTS MPH feet Rate Location/Type
Wed 07:32:25 PM 40.8131 -111.9800 163° South 159 183 5,100  Level Salt Lake Center
Wed 07:33:38 PM 40.8750 -111.9872 355° North 208 239 6,600 1,613 Climbing Salt Lake Center
Wed 07:35:05 PM 40.9692 -111.9989 355° North 250 288 9,400 2,054 Climbing Salt Lake Center
Wed 07:36:00 PM 41.0250 -111.7259 163° South  Level FlightAware Approximate
Wed 07:36:07 PM 41.0419 -111.9767 13° North 290 334 11,700  Level Salt Lake Center
Wed 07:37:00 PM 40.9114 -111.6791 163° South  Level FlightAware Approximate
Wed 07:37:09 PM 41.0261 -111.8781 102° East 315 362 12,900  Level Salt Lake Center
Wed 07:38:10 PM 40.9367 -111.7956 145° Southeast 343 395 14,800 1,854 Climbing Salt Lake Center
Wed 07:39:12 PM 40.8581 -111.7217 145° Southeast 348 400 16,700 1,839 Climbing Salt Lake Center
Wed 07:40:14 PM 40.7792 -111.6469 144° Southeast 350 403 18,600 1,548 Climbing Salt Lake Center
Wed 07:41:16 PM 40.7283 -111.5264 119° Southeast 390 449 19,900 1,258 Climbing Salt Lake Center
Wed 07:42:18 PM 40.6875 -111.3858 111° Southeast 411 473 21,200 1,366 Climbing Salt Lake Center
Wed 07:43:19 PM 40.6386 -111.2167 111° Southeast 414 476 22,700 1,317 Climbing Salt Lake Center
Wed 07:44:21 PM 40.5958 -111.0694 111° Southeast 425 489 23,900 1,210 Climbing Salt Lake Center
Wed 07:45:23 PM 40.5511 -110.9175 111° Southeast 442 509 25,200 1,355 Climbing Salt Lake Center
Wed 07:46:25 PM 40.5067 -110.7664 111° Southeast 444 511 26,700 1,355 Climbing Salt Lake Center
Wed 07:47:27 PM 40.4631 -110.6142 111° Southeast 447 514 28,000 1,171 Climbing Salt Lake Center
Wed 07:48:28 PM 40.4103 -110.4356 111° Southeast 452 520 29,100 927 Climbing Salt Lake Center
Wed 07:49:30 PM 40.3661 -110.2850 111° Southeast 460 529 29,900 774 Climbing Salt Lake Center
Wed 07:50:32 PM 40.3214 -110.1311 111° Southeast 471 542 30,700 774 Climbing Salt Lake Center
Wed 07:51:34 PM 40.2392 -109.9772 125° Southeast 460 529 31,500 726 Climbing Salt Lake Center
Wed 07:52:36 PM 40.1672 -109.8433 125° Southeast 468 539 32,200 634 Climbing Salt Lake Center
Wed 07:53:37 PM 40.0842 -109.6886 125° Southeast 466 536 32,800 390 Climbing Salt Lake Center
Wed 07:54:39 PM 40.0122 -109.5553 125° Southeast 469 540 33,000 97 Climbing Salt Lake Center
Wed 07:55:41 PM 39.9292 -109.3994 125° Southeast 469 540 33,000  Level Salt Lake Center
Wed 07:56:13 PM 39.9053 -109.3542 125° Southeast 465 535 33,000  Level Denver Center
Wed 07:57:16 PM 39.8108 -109.1822 126° Southeast 459 528 33,000 240 Level Denver Center
Wed 07:58:18 PM 39.7397 -109.0506 125° Southeast 464 534 33,500 677 Climbing Denver Center
Wed 07:59:20 PM 39.6556 -108.8983 126° Southeast 469 540 34,400 677 Climbing Denver Center
Wed 08:00:22 PM 39.5842 -108.7714 126° Southeast 474 545 34,900 290 Climbing Denver Center
Wed 08:01:24 PM 39.5011 -108.6167 125° Southeast 479 551 35,000 48 Climbing Denver Center
Wed 08:02:26 PM 39.4267 -108.4819 126° Southeast 481 554 35,000  Level Denver Center
Wed 08:03:28 PM 39.3411 -108.3267 125° Southeast 473 544 35,000  Level Denver Center
Wed 08:04:30 PM 39.2694 -108.1989 126° Southeast 460 529 35,000  Level Denver Center
Wed 08:05:32 PM 39.1842 -108.0483 126° Southeast 466 536 35,000  Level Denver Center
Wed 08:06:34 PM 39.1119 -107.9178 125° Southeast 468 539 35,000  Level Denver Center
Wed 08:07:37 PM 39.0247 -107.7669 127° Southeast 472 543 35,000  Level Denver Center
Wed 08:08:39 PM 38.9506 -107.6372 126° Southeast 469 540 35,000  Level Denver Center
Wed 08:09:41 PM 38.8658 -107.4903 126° Southeast 461 531 35,000  Level Denver Center
Wed 08:10:43 PM 38.7950 -107.3656 126° Southeast 453 521 35,000  Level Denver Center
Wed 08:11:45 PM 38.7114 -107.2208 126° Southeast 451 519 35,000  Level Denver Center
Wed 08:12:47 PM 38.6372 -107.0942 127° Southeast 450 518 35,000  Level Denver Center
Wed 08:13:49 PM 38.5617 -106.9661 127° Southeast 451 519 35,000  Level Denver Center
Wed 08:14:51 PM 38.4867 -106.8364 126° Southeast 454 522 35,000  Level Denver Center
Wed 08:15:53 PM 38.4097 -106.7061 127° Southeast 459 528 35,000  Level Denver Center
Wed 08:16:55 PM 38.3272 -106.5567 125° Southeast 461 531 35,000  Level Denver Center
Wed 08:17:57 PM 38.2625 -106.3942 117° Southeast 478 550 35,000  Level Denver Center
Wed 08:18:59 PM 38.1875 -106.2586 125° Southeast 471 542 35,000  Level Denver Center
Wed 08:20:01 PM 38.1036 -106.1206 128° Southeast 462 532 35,000  Level Denver Center
Wed 08:21:03 PM 38.0289 -105.9975 128° Southeast 462 532 35,000  Level Denver Center
Wed 08:22:05 PM 37.9436 -105.8561 127° Southeast 455 524 35,000  Level Denver Center
Wed 08:23:07 PM 37.8706 -105.7369 128° Southeast 450 518 35,000  Level Denver Center
Wed 08:24:09 PM 37.7717 -105.6119 135° Southeast 454 522 35,000  Level Denver Center
Wed 08:25:12 PM 37.6850 -105.5125 138° Southeast 442 509 35,000  Level Denver Center
Wed 08:26:13 PM 37.5833 -105.3989 138° Southeast 437 503 35,000  Level Denver Center
Wed 08:27:15 PM 37.4867 -105.2942 139° Southeast 440 506 35,000  Level Denver Center
Wed 08:28:17 PM 37.3986 -105.1931 138° Southeast 446 513 35,000  Level Denver Center
Wed 08:29:19 PM 37.3064 -105.0800 136° Southeast 449 517 35,000  Level Denver Center
Wed 08:30:21 PM 37.2225 -104.9719 134° Southeast 453 521 35,000  Level Denver Center
Wed 08:31:23 PM 37.1231 -104.8433 134° Southeast 459 528 35,000 48 Level Denver Center
Wed 08:32:26 PM 37.0375 -104.7325 134° Southeast 463 533 35,100  Climbing Denver Center
Wed 08:33:28 PM 36.9375 -104.6053 135° Southeast 462 532 35,000 -48 Descending Denver Center
Wed 08:34:30 PM 36.8447 -104.5058 139° Southeast 461 531 35,000  Level Denver Center
Wed 08:35:32 PM 36.7344 -104.3933 141° Southeast 460 529 35,000  Level Denver Center
Wed 08:36:34 PM 36.6400 -104.2992 141° Southeast 457 526 35,000  Level Denver Center
Wed 08:37:36 PM 36.5617 -104.1536 124° Southeast 463 533 35,000  Level Denver Center
Wed 08:38:55 PM 36.4844 -103.9753 118° Southeast 454 522 35,000  Level Albuquerque Center
Wed 08:39:57 PM 36.4233 -103.8350 118° Southeast 456 525 35,000  Level Albuquerque Center
Wed 08:40:58 PM 36.3608 -103.6931 119° Southeast 460 529 35,000  Level Albuquerque Center
Wed 08:42:00 PM 36.2978 -103.5492 119° Southeast 466 536 35,000  Level Albuquerque Center
Wed 08:43:02 PM 36.2336 -103.4033 119° Southeast 473 544 35,000  Level Albuquerque Center
Wed 08:44:03 PM 36.1692 -103.2572 119° Southeast 476 548 35,000  Level Albuquerque Center
Wed 08:45:05 PM 36.1022 -103.1086 119° Southeast 484 557 35,000  Level Albuquerque Center
Wed 08:46:06 PM 36.0242 -102.9375 119° Southeast 484 557 35,000  Level Albuquerque Center
Wed 08:47:08 PM 35.9647 -102.8058 119° Southeast 488 562 35,000  Level Albuquerque Center
Wed 08:48:10 PM 35.8983 -102.6597 119° Southeast 488 562 35,000  Level Albuquerque Center
Wed 08:49:11 PM 35.8308 -102.5114 119° Southeast 494 568 35,000  Level Albuquerque Center
Wed 08:50:13 PM 35.7506 -102.3350 119° Southeast 493 567 35,000  Level Albuquerque Center
Wed 08:51:15 PM 35.6822 -102.1872 120° Southeast 496 571 35,000  Level Albuquerque Center
Wed 08:52:16 PM 35.6144 -102.0381 119° Southeast 497 572 35,000  Level Albuquerque Center
Wed 08:53:18 PM 35.5450 -101.8908 120° Southeast 497 572 35,000  Level Albuquerque Center
Wed 08:54:19 PM 35.4794 -101.7450 119° Southeast 498 573 35,000  Level Albuquerque Center
Wed 08:55:21 PM 35.4117 -101.6003 120° Southeast 498 573 35,000  Level Albuquerque Center
Wed 08:56:23 PM 35.3408 -101.4539 121° Southeast 499 574 35,000  Level Albuquerque Center
Wed 08:57:24 PM 35.2642 -101.2925 120° Southeast 500 575 35,000  Level Albuquerque Center
Wed 08:58:26 PM 35.1944 -101.1469 120° Southeast 497 572 35,000  Level Albuquerque Center
Wed 08:59:27 PM 35.1261 -101.0028 120° Southeast 491 565 35,000  Level Albuquerque Center
Wed 09:00:29 PM 35.0453 -100.8325 120° Southeast 486 559 35,000  Level Albuquerque Center
Wed 09:01:31 PM 34.9772 -100.6911 120° Southeast 483 556 35,000  Level Albuquerque Center
Wed 09:02:32 PM 34.9089 -100.5517 121° Southeast 482 555 35,000  Level Albuquerque Center
Wed 09:03:34 PM 34.8414 -100.4108 120° Southeast 481 554 35,000  Level Albuquerque Center
Wed 09:04:35 PM 34.7806 -100.2856 121° Southeast 479 551 35,000  Level Albuquerque Center
Wed 09:05:37 PM 34.6986 -100.1189 121° Southeast 479 551 35,000  Level Albuquerque Center
Wed 09:06:39 PM 34.6311 -99.9806 121° Southeast 477 549 35,000  Level Albuquerque Center
Wed 09:07:36 PM 34.5708 -99.8572 121° Southeast 480 552 35,000  Level Fort Worth Center
Wed 09:08:36 PM 34.4944 -99.7039 121° Southeast 480 552 35,000  Level Fort Worth Center
Wed 09:09:36 PM 34.4261 -99.5636 121° Southeast 480 552 35,000 -600 Level Fort Worth Center
Wed 09:10:36 PM 34.3575 -99.4261 121° Southeast 480 552 33,800 -1,300 Descending Fort Worth Center
Wed 09:11:36 PM 34.2986 -99.3089 121° Southeast 474 545 32,400 -1,500 Descending Fort Worth Center
Wed 09:12:36 PM 34.2297 -99.1694 121° Southeast 474 545 30,800 -1,600 Descending Fort Worth Center
Wed 09:13:36 PM 34.1564 -99.0347 123° Southeast 467 537 29,200 -1,450 Descending Fort Worth Center
Wed 09:14:36 PM 34.1036 -98.9286 121° Southeast 462 532 27,900 -1,600 Descending Fort Worth Center
Wed 09:15:36 PM 34.0219 -98.7667 121° Southeast 469 540 26,000 -1,600 Descending Fort Worth Center
Wed 09:16:36 PM 33.9503 -98.6428 125° Southeast 457 526 24,700 -1,000 Descending Fort Worth Center
Wed 09:17:36 PM 33.8844 -98.5244 124° Southeast 446 513 24,000 -950 Descending Fort Worth Center
Wed 09:18:36 PM 33.8250 -98.4211 125° Southeast 433 498 22,800 -1,800 Descending Fort Worth Center
Wed 09:19:36 PM 33.7589 -98.3028 124° Southeast 427 491 20,400 -2,380 Descending Fort Worth Center
Wed 09:20:37 PM 33.6847 -98.1697 124° Southeast 441 507 18,000 -2,050 Descending Fort Worth Center
Wed 09:21:36 PM 33.6167 -98.0494 124° Southeast 441 507 16,300 -1,866 Descending Fort Worth Center
Wed 09:22:36 PM 33.5461 -97.9294 125° Southeast 441 507 14,300 -1,700 Descending Fort Worth Center
Wed 09:23:36 PM 33.4819 -97.8144 124° Southeast 439 505 12,900 -1,750 Descending Fort Worth Center
Wed 09:24:36 PM 33.4175 -97.7047 125° Southeast 411 473 10,800 -1,200 Descending Fort Worth Center
Wed 09:25:36 PM 33.3614 -97.6175 128° Southeast 360 414 10,500 -923 Descending Fort Worth Center
Wed 09:26:46 PM 33.3000 -97.5333 131° Southeast 296 341 8,800 -1,477 Descending Dallas / Fort Worth TRACON
Wed 09:27:46 PM 33.2333 -97.4667 140° Southeast 287 330 7,300 -1,474 Descending Dallas / Fort Worth TRACON
Wed 09:28:40 PM 33.2000 -97.4000 121° Southeast 268 308 6,000 -1,158 Descending Dallas / Fort Worth TRACON
Wed 09:29:40 PM 33.1500 -97.3333 132° Southeast 257 296 5,100 -1,190 Descending Dallas / Fort Worth TRACON
Wed 09:30:36 PM 33.0983 -97.2869 143° Southeast 254 292 3,700 -1,138 Descending Fort Worth Center
Wed 09:31:36 PM 33.0567 -97.2375 135° Southeast 243 280 2,900 -400 Descending Fort Worth Center
Wed 09:32:36 PM 33.0064 -97.1881 140° Southeast 231 266 2,900 -350 Level Fort Worth Center
Wed 09:33:36 PM 32.9772 -97.1508 133° Southeast 201 231 2,200 -700 Descending Fort Worth Center

Login

Don't have an account? Register now (free) for customized features, flight alerts, and more!